sensor_id;sensor_type;location;lat;lon;timestamp;temperature;humidity
33382;DHT22;21342;48.786;9.166;2022-12-18T00:00:48;-5.30;99.90
33382;DHT22;21342;48.786;9.166;2022-12-18T00:03:16;-5.30;99.90
33382;DHT22;21342;48.786;9.166;2022-12-18T00:05:47;-5.40;99.90
33382;DHT22;21342;48.786;9.166;2022-12-18T00:08:14;-5.40;99.90
33382;DHT22;21342;48.786;9.166;2022-12-18T00:10:42;-5.50;99.90
33382;DHT22;21342;48.786;9.166;2022-12-18T00:13:11;-5.40;99.90
33382;DHT22;21342;48.786;9.166;2022-12-18T00:15:39;-5.20;99.90
33382;DHT22;21342;48.786;9.166;2022-12-18T00:18:06;-5.20;99.90
33382;DHT22;21342;48.786;9.166;2022-12-18T00:20:36;-5.10;99.90
33382;DHT22;21342;48.786;9.166;2022-12-18T00:23:04;-5.10;99.90
33382;DHT22;21342;48.786;9.166;2022-12-18T00:25:32;-5.10;99.90
33382;DHT22;21342;48.786;9.166;2022-12-18T00:28:00;-5.10;99.90
33382;DHT22;21342;48.786;9.166;2022-12-18T00:30:29;-5.20;99.90
33382;DHT22;21342;48.786;9.166;2022-12-18T00:32:57;-5.40;99.90
33382;DHT22;21342;48.786;9.166;2022-12-18T00:35:24;-5.40;99.90
33382;DHT22;21342;48.786;9.166;2022-12-18T00:37:52;-5.20;99.90
33382;DHT22;21342;48.786;9.166;2022-12-18T00:40:19;-5.30;99.90
33382;DHT22;21342;48.786;9.166;2022-12-18T00:42:46;-5.30;99.90
33382;DHT22;21342;48.786;9.166;2022-12-18T00:45:22;-5.20;99.90
33382;DHT22;21342;48.786;9.166;2022-12-18T00:47:54;-5.30;99.90
33382;DHT22;21342;48.786;9.166;2022-12-18T00:50:22;-5.40;99.90
33382;DHT22;21342;48.786;9.166;2022-12-18T00:52:50;-5.50;99.90
33382;DHT22;21342;48.786;9.166;2022-12-18T00:55:18;-5.60;99.90
33382;DHT22;21342;48.786;9.166;2022-12-18T00:57:45;-5.60;99.90
33382;DHT22;21342;48.786;9.166;2022-12-18T01:00:14;-5.70;99.90
33382;DHT22;21342;48.786;9.166;2022-12-18T01:02:42;-5.70;99.90
33382;DHT22;21342;48.786;9.166;2022-12-18T01:05:15;-5.70;99.90
33382;DHT22;21342;48.786;9.166;2022-12-18T01:07:42;-5.70;99.90
33382;DHT22;21342;48.786;9.166;2022-12-18T01:10:12;-5.60;99.90
33382;DHT22;21342;48.786;9.166;2022-12-18T01:12:39;-5.50;99.90
33382;DHT22;21342;48.786;9.166;2022-12-18T01:15:08;-5.50;99.90
33382;DHT22;21342;48.786;9.166;2022-12-18T01:17:35;-5.60;99.90
33382;DHT22;21342;48.786;9.166;2022-12-18T01:20:03;-5.50;99.90
33382;DHT22;21342;48.786;9.166;2022-12-18T01:22:32;-5.50;99.90
33382;DHT22;21342;48.786;9.166;2022-12-18T01:25:03;-5.60;99.90
33382;DHT22;21342;48.786;9.166;2022-12-18T01:27:32;-5.40;99.90
33382;DHT22;21342;48.786;9.166;2022-12-18T01:29:59;-5.40;99.90
33382;DHT22;21342;48.786;9.166;2022-12-18T01:32:29;-5.40;99.90
33382;DHT22;21342;48.786;9.166;2022-12-18T01:34:57;-5.40;99.90
33382;DHT22;21342;48.786;9.166;2022-12-18T01:37:24;-5.40;99.90
33382;DHT22;21342;48.786;9.166;2022-12-18T01:39:54;-5.30;99.90
33382;DHT22;21342;48.786;9.166;2022-12-18T01:42:21;-5.40;99.90
33382;DHT22;21342;48.786;9.166;2022-12-18T01:45:02;-5.30;99.90
33382;DHT22;21342;48.786;9.166;2022-12-18T01:47:34;-5.20;99.90
33382;DHT22;21342;48.786;9.166;2022-12-18T01:50:07;-5.30;99.90
33382;DHT22;21342;48.786;9.166;2022-12-18T01:52:36;-5.40;99.90
33382;DHT22;21342;48.786;9.166;2022-12-18T01:55:11;-5.40;99.90
33382;DHT22;21342;48.786;9.166;2022-12-18T01:57:39;-5.30;99.90
33382;DHT22;21342;48.786;9.166;2022-12-18T02:00:11;-5.30;99.90
33382;DHT22;21342;48.786;9.166;2022-12-18T02:02:39;-5.30;99.90
33382;DHT22;21342;48.786;9.166;2022-12-18T02:05:08;-5.20;99.90
33382;DHT22;21342;48.786;9.166;2022-12-18T02:07:43;-5.30;99.90
33382;DHT22;21342;48.786;9.166;2022-12-18T02:10:18;-5.40;99.90
33382;DHT22;21342;48.786;9.166;2022-12-18T02:12:51;-5.50;99.90
33382;DHT22;21342;48.786;9.166;2022-12-18T02:15:23;-5.40;99.90
33382;DHT22;21342;48.786;9.166;2022-12-18T02:17:55;-5.50;99.90
33382;DHT22;21342;48.786;9.166;2022-12-18T02:20:27;-5.40;99.90
33382;DHT22;21342;48.786;9.166;2022-12-18T02:23:04;-5.20;99.90
33382;DHT22;21342;48.786;9.166;2022-12-18T02:25:54;-5.20;99.90
33382;DHT22;21342;48.786;9.166;2022-12-18T02:28:30;-5.20;99.90
33382;DHT22;21342;48.786;9.166;2022-12-18T02:31:01;-5.20;99.90
33382;DHT22;21342;48.786;9.166;2022-12-18T02:33:30;-5.20;99.90
33382;DHT22;21342;48.786;9.166;2022-12-18T02:36:00;-5.20;99.90
33382;DHT22;21342;48.786;9.166;2022-12-18T02:38:29;-5.20;99.90
33382;DHT22;21342;48.786;9.166;2022-12-18T02:40:59;-5.10;99.90
33382;DHT22;21342;48.786;9.166;2022-12-18T02:43:27;-5.20;99.90
33382;DHT22;21342;48.786;9.166;2022-12-18T02:46:00;-5.10;99.90
33382;DHT22;21342;48.786;9.166;2022-12-18T02:48:47;-5.10;99.90
33382;DHT22;21342;48.786;9.166;2022-12-18T02:51:22;-5.10;99.90
33382;DHT22;21342;48.786;9.166;2022-12-18T02:53:56;-5.20;99.90
33382;DHT22;21342;48.786;9.166;2022-12-18T02:56:29;-5.30;99.90
33382;DHT22;21342;48.786;9.166;2022-12-18T02:59:00;-5.30;99.90
33382;DHT22;21342;48.786;9.166;2022-12-18T03:01:34;-5.20;99.90
33382;DHT22;21342;48.786;9.166;2022-12-18T03:04:07;-5.30;99.90
33382;DHT22;21342;48.786;9.166;2022-12-18T03:06:40;-5.30;99.90
33382;DHT22;21342;48.786;9.166;2022-12-18T03:09:10;-5.30;99.90
33382;DHT22;21342;48.786;9.166;2022-12-18T03:11:42;-5.30;99.90
33382;DHT22;21342;48.786;9.166;2022-12-18T03:14:31;-5.30;99.90
33382;DHT22;21342;48.786;9.166;2022-12-18T03:17:02;-5.30;99.90
33382;DHT22;21342;48.786;9.166;2022-12-18T03:19:32;-5.40;99.90
33382;DHT22;21342;48.786;9.166;2022-12-18T03:22:02;-5.40;99.90
33382;DHT22;21342;48.786;9.166;2022-12-18T03:24:31;-5.50;99.90
33382;DHT22;21342;48.786;9.166;2022-12-18T03:27:03;-5.50;99.90
33382;DHT22;21342;48.786;9.166;2022-12-18T03:29:35;-5.50;99.90
33382;DHT22;21342;48.786;9.166;2022-12-18T03:32:08;-5.40;99.90
33382;DHT22;21342;48.786;9.166;2022-12-18T03:34:39;-5.40;99.90
33382;DHT22;21342;48.786;9.166;2022-12-18T03:37:08;-5.40;99.90
33382;DHT22;21342;48.786;9.166;2022-12-18T03:39:35;-5.60;99.90
33382;DHT22;21342;48.786;9.166;2022-12-18T03:42:08;-5.50;99.90
33382;DHT22;21342;48.786;9.166;2022-12-18T03:44:43;-5.50;99.90
33382;DHT22;21342;48.786;9.166;2022-12-18T03:47:16;-5.50;99.90
33382;DHT22;21342;48.786;9.166;2022-12-18T03:49:47;-5.50;99.90
33382;DHT22;21342;48.786;9.166;2022-12-18T03:52:20;-5.50;99.90
33382;DHT22;21342;48.786;9.166;2022-12-18T03:54:48;-5.50;99.90
33382;DHT22;21342;48.786;9.166;2022-12-18T03:57:20;-5.50;99.90
33382;DHT22;21342;48.786;9.166;2022-12-18T03:59:50;-5.60;99.90
33382;DHT22;21342;48.786;9.166;2022-12-18T04:02:21;-5.70;99.90
33382;DHT22;21342;48.786;9.166;2022-12-18T04:04:51;-5.70;99.90
33382;DHT22;21342;48.786;9.166;2022-12-18T04:07:20;-5.70;99.90
33382;DHT22;21342;48.786;9.166;2022-12-18T04:09:48;-5.70;99.90
33382;DHT22;21342;48.786;9.166;2022-12-18T04:14:47;-5.80;99.90
33382;DHT22;21342;48.786;9.166;2022-12-18T04:17:14;-5.80;99.90
33382;DHT22;21342;48.786;9.166;2022-12-18T04:19:42;-5.90;99.90
33382;DHT22;21342;48.786;9.166;2022-12-18T04:22:09;-5.90;99.90
33382;DHT22;21342;48.786;9.166;2022-12-18T04:24:37;-6.00;99.90
33382;DHT22;21342;48.786;9.166;2022-12-18T04:27:04;-6.00;99.90
33382;DHT22;21342;48.786;9.166;2022-12-18T04:29:33;-6.00;99.90
33382;DHT22;21342;48.786;9.166;2022-12-18T04:32:00;-6.00;99.90
33382;DHT22;21342;48.786;9.166;2022-12-18T04:34:30;-5.90;99.90
33382;DHT22;21342;48.786;9.166;2022-12-18T04:36:57;-6.00;99.90
33382;DHT22;21342;48.786;9.166;2022-12-18T04:39:24;-6.00;99.90
33382;DHT22;21342;48.786;9.166;2022-12-18T04:41:52;-6.00;99.90
33382;DHT22;21342;48.786;9.166;2022-12-18T04:44:19;-6.10;99.90
33382;DHT22;21342;48.786;9.166;2022-12-18T04:46:47;-6.10;99.90
33382;DHT22;21342;48.786;9.166;2022-12-18T04:49:15;-6.20;99.90
33382;DHT22;21342;48.786;9.166;2022-12-18T04:51:42;-6.30;99.90
33382;DHT22;21342;48.786;9.166;2022-12-18T04:54:09;-6.20;99.90
33382;DHT22;21342;48.786;9.166;2022-12-18T04:56:37;-6.30;99.90
33382;DHT22;21342;48.786;9.166;2022-12-18T04:59:04;-6.30;99.90
33382;DHT22;21342;48.786;9.166;2022-12-18T05:01:31;-6.30;99.90
33382;DHT22;21342;48.786;9.166;2022-12-18T05:04:03;-6.20;99.90
33382;DHT22;21342;48.786;9.166;2022-12-18T05:06:31;-6.30;99.90
33382;DHT22;21342;48.786;9.166;2022-12-18T05:08:58;-6.50;99.90
33382;DHT22;21342;48.786;9.166;2022-12-18T05:11:26;-6.40;99.90
33382;DHT22;21342;48.786;9.166;2022-12-18T05:13:56;-6.40;99.90
33382;DHT22;21342;48.786;9.166;2022-12-18T05:16:23;-6.40;99.90
33382;DHT22;21342;48.786;9.166;2022-12-18T05:18:50;-6.40;99.90
33382;DHT22;21342;48.786;9.166;2022-12-18T05:21:19;-6.50;99.90
33382;DHT22;21342;48.786;9.166;2022-12-18T05:23:46;-6.40;99.90
33382;DHT22;21342;48.786;9.166;2022-12-18T05:26:16;-6.50;99.90
33382;DHT22;21342;48.786;9.166;2022-12-18T05:28:44;-6.40;99.90
33382;DHT22;21342;48.786;9.166;2022-12-18T05:31:11;-6.40;99.90
33382;DHT22;21342;48.786;9.166;2022-12-18T05:33:39;-6.50;99.90
33382;DHT22;21342;48.786;9.166;2022-12-18T05:36:07;-6.50;99.90
33382;DHT22;21342;48.786;9.166;2022-12-18T05:38:37;-6.40;99.90
33382;DHT22;21342;48.786;9.166;2022-12-18T05:41:05;-6.40;99.90
33382;DHT22;21342;48.786;9.166;2022-12-18T05:43:34;-6.20;99.90
33382;DHT22;21342;48.786;9.166;2022-12-18T05:46:04;-6.30;99.90
33382;DHT22;21342;48.786;9.166;2022-12-18T05:48:32;-6.30;99.90
33382;DHT22;21342;48.786;9.166;2022-12-18T05:51:05;-6.40;99.90
33382;DHT22;21342;48.786;9.166;2022-12-18T05:53:33;-6.40;99.90
33382;DHT22;21342;48.786;9.166;2022-12-18T05:56:03;-6.50;99.90
33382;DHT22;21342;48.786;9.166;2022-12-18T05:58:31;-6.50;99.90
33382;DHT22;21342;48.786;9.166;2022-12-18T06:01:07;-6.50;99.90
33382;DHT22;21342;48.786;9.166;2022-12-18T06:03:34;-6.60;99.90
33382;DHT22;21342;48.786;9.166;2022-12-18T06:06:02;-6.70;99.90
33382;DHT22;21342;48.786;9.166;2022-12-18T06:08:29;-6.70;99.90
33382;DHT22;21342;48.786;9.166;2022-12-18T06:10:56;-6.70;99.90
33382;DHT22;21342;48.786;9.166;2022-12-18T06:13:25;-6.70;99.90
33382;DHT22;21342;48.786;9.166;2022-12-18T06:18:20;-6.60;99.90
33382;DHT22;21342;48.786;9.166;2022-12-18T06:20:54;-6.80;99.90
33382;DHT22;21342;48.786;9.166;2022-12-18T06:23:22;-6.80;99.90
33382;DHT22;21342;48.786;9.166;2022-12-18T06:25:50;-6.80;99.90
33382;DHT22;21342;48.786;9.166;2022-12-18T06:28:17;-6.70;99.90
33382;DHT22;21342;48.786;9.166;2022-12-18T06:30:50;-6.80;99.90
33382;DHT22;21342;48.786;9.166;2022-12-18T06:33:18;-6.80;99.90
33382;DHT22;21342;48.786;9.166;2022-12-18T06:35:46;-6.70;99.90
33382;DHT22;21342;48.786;9.166;2022-12-18T06:38:13;-6.70;99.90
33382;DHT22;21342;48.786;9.166;2022-12-18T06:40:40;-6.70;99.90
33382;DHT22;21342;48.786;9.166;2022-12-18T06:43:07;-6.70;99.90
33382;DHT22;21342;48.786;9.166;2022-12-18T06:45:35;-6.70;99.90
33382;DHT22;21342;48.786;9.166;2022-12-18T06:48:04;-6.70;99.90
33382;DHT22;21342;48.786;9.166;2022-12-18T06:50:31;-6.70;99.90
33382;DHT22;21342;48.786;9.166;2022-12-18T06:52:58;-6.60;99.90
33382;DHT22;21342;48.786;9.166;2022-12-18T06:55:26;-6.60;99.90
33382;DHT22;21342;48.786;9.166;2022-12-18T06:57:53;-6.70;99.90
33382;DHT22;21342;48.786;9.166;2022-12-18T07:00:20;-6.80;99.90
33382;DHT22;21342;48.786;9.166;2022-12-18T07:02:48;-6.70;99.90
33382;DHT22;21342;48.786;9.166;2022-12-18T07:05:17;-6.70;99.90
33382;DHT22;21342;48.786;9.166;2022-12-18T07:07:46;-6.60;99.90
33382;DHT22;21342;48.786;9.166;2022-12-18T07:10:14;-6.70;99.90
33382;DHT22;21342;48.786;9.166;2022-12-18T07:12:41;-6.80;99.90
33382;DHT22;21342;48.786;9.166;2022-12-18T07:15:09;-6.80;99.90
33382;DHT22;21342;48.786;9.166;2022-12-18T07:17:36;-6.80;99.90
33382;DHT22;21342;48.786;9.166;2022-12-18T07:20:04;-6.80;99.90
33382;DHT22;21342;48.786;9.166;2022-12-18T07:22:33;-6.80;99.90
33382;DHT22;21342;48.786;9.166;2022-12-18T07:25:00;-6.60;99.90
33382;DHT22;21342;48.786;9.166;2022-12-18T07:27:27;-6.40;99.90
33382;DHT22;21342;48.786;9.166;2022-12-18T07:29:55;-6.40;99.90
33382;DHT22;21342;48.786;9.166;2022-12-18T07:32:22;-6.50;99.90
33382;DHT22;21342;48.786;9.166;2022-12-18T07:34:50;-6.50;99.90
33382;DHT22;21342;48.786;9.166;2022-12-18T07:37:17;-6.40;99.90
33382;DHT22;21342;48.786;9.166;2022-12-18T07:39:46;-6.40;99.90
33382;DHT22;21342;48.786;9.166;2022-12-18T07:42:13;-6.40;99.90
33382;DHT22;21342;48.786;9.166;2022-12-18T07:44:59;-6.40;99.90
33382;DHT22;21342;48.786;9.166;2022-12-18T07:47:27;-6.40;99.90
33382;DHT22;21342;48.786;9.166;2022-12-18T07:49:57;-6.30;99.90
33382;DHT22;21342;48.786;9.166;2022-12-18T07:52:24;-6.30;99.90
33382;DHT22;21342;48.786;9.166;2022-12-18T07:54:53;-6.30;99.90
33382;DHT22;21342;48.786;9.166;2022-12-18T07:57:21;-6.20;99.90
33382;DHT22;21342;48.786;9.166;2022-12-18T07:59:48;-6.30;99.90
33382;DHT22;21342;48.786;9.166;2022-12-18T08:02:16;-6.20;99.90
33382;DHT22;21342;48.786;9.166;2022-12-18T08:04:43;-6.20;99.90
33382;DHT22;21342;48.786;9.166;2022-12-18T08:07:11;-6.20;99.90
33382;DHT22;21342;48.786;9.166;2022-12-18T08:09:38;-6.20;99.90
33382;DHT22;21342;48.786;9.166;2022-12-18T08:12:07;-6.20;99.90
33382;DHT22;21342;48.786;9.166;2022-12-18T08:14:34;-6.10;99.90
33382;DHT22;21342;48.786;9.166;2022-12-18T08:17:01;-6.20;99.90
33382;DHT22;21342;48.786;9.166;2022-12-18T08:19:29;-6.10;99.90
33382;DHT22;21342;48.786;9.166;2022-12-18T08:21:56;-6.00;99.90
33382;DHT22;21342;48.786;9.166;2022-12-18T08:24:23;-6.00;99.90
33382;DHT22;21342;48.786;9.166;2022-12-18T08:26:51;-6.00;99.90
33382;DHT22;21342;48.786;9.166;2022-12-18T08:29:20;-6.00;99.90
33382;DHT22;21342;48.786;9.166;2022-12-18T08:31:47;-5.90;99.90
33382;DHT22;21342;48.786;9.166;2022-12-18T08:34:14;-5.70;99.90
33382;DHT22;21342;48.786;9.166;2022-12-18T08:36:42;-5.80;99.90
33382;DHT22;21342;48.786;9.166;2022-12-18T08:39:09;-5.80;99.90
33382;DHT22;21342;48.786;9.166;2022-12-18T08:41:36;-5.80;99.90
33382;DHT22;21342;48.786;9.166;2022-12-18T08:44:04;-5.70;99.90
33382;DHT22;21342;48.786;9.166;2022-12-18T08:46:50;-5.70;99.90
33382;DHT22;21342;48.786;9.166;2022-12-18T08:49:17;-5.80;99.90
33382;DHT22;21342;48.786;9.166;2022-12-18T08:51:44;-5.70;99.90
33382;DHT22;21342;48.786;9.166;2022-12-18T08:54:12;-5.70;99.90
33382;DHT22;21342;48.786;9.166;2022-12-18T08:56:40;-5.60;99.90
33382;DHT22;21342;48.786;9.166;2022-12-18T08:59:08;-5.40;99.90
33382;DHT22;21342;48.786;9.166;2022-12-18T09:01:35;-5.40;99.90
33382;DHT22;21342;48.786;9.166;2022-12-18T09:04:04;-5.40;99.90
33382;DHT22;21342;48.786;9.166;2022-12-18T09:06:31;-5.40;99.90
33382;DHT22;21342;48.786;9.166;2022-12-18T09:08:59;-5.20;99.90
33382;DHT22;21342;48.786;9.166;2022-12-18T09:11:28;-5.10;99.90
33382;DHT22;21342;48.786;9.166;2022-12-18T09:13:55;-5.00;99.90
33382;DHT22;21342;48.786;9.166;2022-12-18T09:16:24;-4.90;99.90
33382;DHT22;21342;48.786;9.166;2022-12-18T09:18:52;-4.90;99.90
33382;DHT22;21342;48.786;9.166;2022-12-18T09:21:27;-4.80;99.90
33382;DHT22;21342;48.786;9.166;2022-12-18T09:23:55;-4.80;99.90
33382;DHT22;21342;48.786;9.166;2022-12-18T09:26:24;-4.70;99.90
33382;DHT22;21342;48.786;9.166;2022-12-18T09:28:52;-4.60;99.90
33382;DHT22;21342;48.786;9.166;2022-12-18T09:31:21;-4.50;99.90
33382;DHT22;21342;48.786;9.166;2022-12-18T09:33:49;-4.40;99.90
33382;DHT22;21342;48.786;9.166;2022-12-18T09:36:17;-4.30;99.90
33382;DHT22;21342;48.786;9.166;2022-12-18T09:38:46;-4.20;99.90
33382;DHT22;21342;48.786;9.166;2022-12-18T09:41:30;-4.10;99.90
33382;DHT22;21342;48.786;9.166;2022-12-18T09:44:04;-4.10;99.90
33382;DHT22;21342;48.786;9.166;2022-12-18T09:46:35;-4.00;99.90
33382;DHT22;21342;48.786;9.166;2022-12-18T09:49:06;-3.90;99.90
33382;DHT22;21342;48.786;9.166;2022-12-18T09:51:39;-3.90;99.90
33382;DHT22;21342;48.786;9.166;2022-12-18T09:54:13;-3.90;99.90
33382;DHT22;21342;48.786;9.166;2022-12-18T09:56:43;-3.70;99.90
33382;DHT22;21342;48.786;9.166;2022-12-18T09:59:22;-3.70;99.90
33382;DHT22;21342;48.786;9.166;2022-12-18T10:01:51;-3.90;99.90
33382;DHT22;21342;48.786;9.166;2022-12-18T10:04:18;-3.90;99.90
33382;DHT22;21342;48.786;9.166;2022-12-18T10:06:52;-3.80;99.90
33382;DHT22;21342;48.786;9.166;2022-12-18T10:12:05;-3.10;99.90
33382;DHT22;21342;48.786;9.166;2022-12-18T10:14:43;-3.30;99.90
33382;DHT22;21342;48.786;9.166;2022-12-18T10:17:20;-3.20;99.90
33382;DHT22;21342;48.786;9.166;2022-12-18T10:19:52;-3.10;99.90
33382;DHT22;21342;48.786;9.166;2022-12-18T10:22:39;-3.10;99.90
33382;DHT22;21342;48.786;9.166;2022-12-18T10:25:20;-2.90;99.90
33382;DHT22;21342;48.786;9.166;2022-12-18T10:27:52;-2.80;99.90
33382;DHT22;21342;48.786;9.166;2022-12-18T10:30:22;-2.60;99.90
33382;DHT22;21342;48.786;9.166;2022-12-18T10:32:49;-2.50;99.90
33382;DHT22;21342;48.786;9.166;2022-12-18T10:35:20;-2.00;99.90
33382;DHT22;21342;48.786;9.166;2022-12-18T10:38:01;-1.00;99.90
33382;DHT22;21342;48.786;9.166;2022-12-18T10:40:30;0.20;99.90
33382;DHT22;21342;48.786;9.166;2022-12-18T10:43:09;1.50;99.90
33382;DHT22;21342;48.786;9.166;2022-12-18T10:45:38;2.20;99.90
33382;DHT22;21342;48.786;9.166;2022-12-18T10:48:18;2.80;99.90
33382;DHT22;21342;48.786;9.166;2022-12-18T10:50:48;2.70;99.30
33382;DHT22;21342;48.786;9.166;2022-12-18T10:53:19;2.20;99.90
33382;DHT22;21342;48.786;9.166;2022-12-18T10:55:49;2.90;99.90
33382;DHT22;21342;48.786;9.166;2022-12-18T10:58:23;2.60;99.70
33382;DHT22;21342;48.786;9.166;2022-12-18T11:01:07;2.70;99.50
33382;DHT22;21342;48.786;9.166;2022-12-18T11:03:36;2.60;99.00
33382;DHT22;21342;48.786;9.166;2022-12-18T11:06:07;2.00;99.90
33382;DHT22;21342;48.786;9.166;2022-12-18T11:08:34;2.10;99.90
33382;DHT22;21342;48.786;9.166;2022-12-18T11:11:06;2.70;99.60
33382;DHT22;21342;48.786;9.166;2022-12-18T11:13:34;2.80;99.90
33382;DHT22;21342;48.786;9.166;2022-12-18T11:16:01;3.00;99.90
33382;DHT22;21342;48.786;9.166;2022-12-18T11:18:31;3.10;99.90
33382;DHT22;21342;48.786;9.166;2022-12-18T11:21:01;3.40;99.70
33382;DHT22;21342;48.786;9.166;2022-12-18T11:23:34;2.70;99.50
33382;DHT22;21342;48.786;9.166;2022-12-18T11:26:04;3.20;99.90
33382;DHT22;21342;48.786;9.166;2022-12-18T11:28:37;2.60;99.90
33382;DHT22;21342;48.786;9.166;2022-12-18T11:31:26;2.70;99.90
33382;DHT22;21342;48.786;9.166;2022-12-18T11:34:01;2.20;99.90
33382;DHT22;21342;48.786;9.166;2022-12-18T11:36:33;1.90;99.90
33382;DHT22;21342;48.786;9.166;2022-12-18T11:39:08;2.20;99.90
33382;DHT22;21342;48.786;9.166;2022-12-18T11:41:43;2.40;99.90
33382;DHT22;21342;48.786;9.166;2022-12-18T11:44:38;1.60;99.90
33382;DHT22;21342;48.786;9.166;2022-12-18T11:47:12;1.70;99.90
33382;DHT22;21342;48.786;9.166;2022-12-18T11:49:42;1.40;99.90
33382;DHT22;21342;48.786;9.166;2022-12-18T11:52:16;1.00;99.90
33382;DHT22;21342;48.786;9.166;2022-12-18T11:54:44;0.70;99.90
33382;DHT22;21342;48.786;9.166;2022-12-18T11:57:31;0.40;99.90
33382;DHT22;21342;48.786;9.166;2022-12-18T12:00:04;0.20;99.90
33382;DHT22;21342;48.786;9.166;2022-12-18T12:03:02;-0.10;99.90
33382;DHT22;21342;48.786;9.166;2022-12-18T12:05:44;-0.10;99.90
33382;DHT22;21342;48.786;9.166;2022-12-18T12:08:20;-0.20;99.90
33382;DHT22;21342;48.786;9.166;2022-12-18T12:11:00;-0.20;99.90
33382;DHT22;21342;48.786;9.166;2022-12-18T12:13:42;0.00;99.90
33382;DHT22;21342;48.786;9.166;2022-12-18T12:16:17;-0.10;99.90
33382;DHT22;21342;48.786;9.166;2022-12-18T12:18:58;-0.30;99.90
33382;DHT22;21342;48.786;9.166;2022-12-18T12:21:36;-0.30;99.90
33382;DHT22;21342;48.786;9.166;2022-12-18T12:24:18;-0.30;99.90
33382;DHT22;21342;48.786;9.166;2022-12-18T12:26:54;-0.30;99.90
33382;DHT22;21342;48.786;9.166;2022-12-18T12:29:40;-0.40;99.90
33382;DHT22;21342;48.786;9.166;2022-12-18T12:32:21;-0.40;99.90
33382;DHT22;21342;48.786;9.166;2022-12-18T12:34:59;-0.50;99.90
33382;DHT22;21342;48.786;9.166;2022-12-18T12:37:38;-0.30;99.90
33382;DHT22;21342;48.786;9.166;2022-12-18T12:40:12;-0.40;99.90
33382;DHT22;21342;48.786;9.166;2022-12-18T12:42:44;-0.40;99.90
33382;DHT22;21342;48.786;9.166;2022-12-18T12:45:38;-0.50;99.90
33382;DHT22;21342;48.786;9.166;2022-12-18T12:48:17;-0.50;99.90
33382;DHT22;21342;48.786;9.166;2022-12-18T12:50:46;-0.50;99.90
33382;DHT22;21342;48.786;9.166;2022-12-18T12:53:22;-0.30;99.90
33382;DHT22;21342;48.786;9.166;2022-12-18T12:55:50;-0.20;99.90
33382;DHT22;21342;48.786;9.166;2022-12-18T12:58:25;-0.30;99.90
33382;DHT22;21342;48.786;9.166;2022-12-18T13:01:07;-0.50;99.90
33382;DHT22;21342;48.786;9.166;2022-12-18T13:03:43;-0.50;99.90
33382;DHT22;21342;48.786;9.166;2022-12-18T13:06:16;-0.40;99.90
33382;DHT22;21342;48.786;9.166;2022-12-18T13:08:54;-0.40;99.90
33382;DHT22;21342;48.786;9.166;2022-12-18T13:11:35;-0.40;99.90
33382;DHT22;21342;48.786;9.166;2022-12-18T13:14:23;-0.30;99.90
33382;DHT22;21342;48.786;9.166;2022-12-18T13:16:56;-0.20;99.90
33382;DHT22;21342;48.786;9.166;2022-12-18T13:19:41;-0.20;99.90
33382;DHT22;21342;48.786;9.166;2022-12-18T13:22:21;-0.10;99.90
33382;DHT22;21342;48.786;9.166;2022-12-18T13:24:48;0.00;99.90
33382;DHT22;21342;48.786;9.166;2022-12-18T13:30:45;-0.10;99.90
33382;DHT22;21342;48.786;9.166;2022-12-18T13:33:39;-0.20;99.90
33382;DHT22;21342;48.786;9.166;2022-12-18T13:36:26;-0.20;99.90
33382;DHT22;21342;48.786;9.166;2022-12-18T13:39:31;-0.20;99.90
33382;DHT22;21342;48.786;9.166;2022-12-18T13:45:41;-0.20;99.90
33382;DHT22;21342;48.786;9.166;2022-12-18T13:48:17;-0.30;99.90
33382;DHT22;21342;48.786;9.166;2022-12-18T13:51:05;-0.40;99.90
33382;DHT22;21342;48.786;9.166;2022-12-18T13:53:37;-0.40;99.90
33382;DHT22;21342;48.786;9.166;2022-12-18T13:56:05;-0.50;99.90
33382;DHT22;21342;48.786;9.166;2022-12-18T13:58:32;-0.50;99.90
33382;DHT22;21342;48.786;9.166;2022-12-18T14:01:00;-0.40;99.90
33382;DHT22;21342;48.786;9.166;2022-12-18T14:03:30;-0.40;99.90
33382;DHT22;21342;48.786;9.166;2022-12-18T14:06:05;-0.40;99.90
33382;DHT22;21342;48.786;9.166;2022-12-18T14:08:37;-0.40;99.90
33382;DHT22;21342;48.786;9.166;2022-12-18T14:11:06;-0.40;99.90
33382;DHT22;21342;48.786;9.166;2022-12-18T14:13:36;-0.40;99.90
33382;DHT22;21342;48.786;9.166;2022-12-18T14:16:05;-0.30;99.90
33382;DHT22;21342;48.786;9.166;2022-12-18T14:18:41;-0.30;99.90
33382;DHT22;21342;48.786;9.166;2022-12-18T14:21:20;-0.30;99.90
33382;DHT22;21342;48.786;9.166;2022-12-18T14:23:48;-0.40;99.90
33382;DHT22;21342;48.786;9.166;2022-12-18T14:26:24;-0.40;99.90
33382;DHT22;21342;48.786;9.166;2022-12-18T14:28:54;-0.40;99.90
33382;DHT22;21342;48.786;9.166;2022-12-18T14:31:23;-0.40;99.90
33382;DHT22;21342;48.786;9.166;2022-12-18T14:33:52;-0.30;99.90
33382;DHT22;21342;48.786;9.166;2022-12-18T14:36:22;-0.40;99.90
33382;DHT22;21342;48.786;9.166;2022-12-18T14:38:51;-0.40;99.90
33382;DHT22;21342;48.786;9.166;2022-12-18T14:41:21;-0.30;99.90
33382;DHT22;21342;48.786;9.166;2022-12-18T14:43:50;-0.30;99.90
33382;DHT22;21342;48.786;9.166;2022-12-18T14:46:29;-0.30;99.90
33382;DHT22;21342;48.786;9.166;2022-12-18T14:48:59;-0.30;99.90
33382;DHT22;21342;48.786;9.166;2022-12-18T14:51:30;-0.50;99.90
33382;DHT22;21342;48.786;9.166;2022-12-18T14:53:59;-0.50;99.90
33382;DHT22;21342;48.786;9.166;2022-12-18T14:56:28;-0.50;99.90
33382;DHT22;21342;48.786;9.166;2022-12-18T14:58:58;-0.50;99.90
33382;DHT22;21342;48.786;9.166;2022-12-18T15:01:28;-0.50;99.90
33382;DHT22;21342;48.786;9.166;2022-12-18T15:03:58;-0.60;99.90
33382;DHT22;21342;48.786;9.166;2022-12-18T15:06:35;-0.60;99.90
33382;DHT22;21342;48.786;9.166;2022-12-18T15:09:04;-0.70;99.90
33382;DHT22;21342;48.786;9.166;2022-12-18T15:11:45;-0.70;99.90
33382;DHT22;21342;48.786;9.166;2022-12-18T15:14:23;-0.70;99.90
33382;DHT22;21342;48.786;9.166;2022-12-18T15:16:53;-0.80;99.90
33382;DHT22;21342;48.786;9.166;2022-12-18T15:19:31;-0.70;99.90
33382;DHT22;21342;48.786;9.166;2022-12-18T15:22:01;-0.70;99.90
33382;DHT22;21342;48.786;9.166;2022-12-18T15:24:31;-0.80;99.90
33382;DHT22;21342;48.786;9.166;2022-12-18T15:26:59;-0.80;99.90
33382;DHT22;21342;48.786;9.166;2022-12-18T15:29:27;-0.90;99.90
33382;DHT22;21342;48.786;9.166;2022-12-18T15:32:04;-0.90;99.90
33382;DHT22;21342;48.786;9.166;2022-12-18T15:34:32;-1.00;99.90
33382;DHT22;21342;48.786;9.166;2022-12-18T15:37:02;-1.00;99.90
33382;DHT22;21342;48.786;9.166;2022-12-18T15:39:29;-1.00;99.90
33382;DHT22;21342;48.786;9.166;2022-12-18T15:41:56;-1.00;99.90
33382;DHT22;21342;48.786;9.166;2022-12-18T15:44:41;-1.10;99.90
33382;DHT22;21342;48.786;9.166;2022-12-18T15:47:12;-1.10;99.90
33382;DHT22;21342;48.786;9.166;2022-12-18T15:49:39;-1.10;99.90
33382;DHT22;21342;48.786;9.166;2022-12-18T15:52:13;-1.20;99.90
33382;DHT22;21342;48.786;9.166;2022-12-18T15:54:51;-1.30;99.90
33382;DHT22;21342;48.786;9.166;2022-12-18T15:57:36;-1.30;99.90
33382;DHT22;21342;48.786;9.166;2022-12-18T16:00:04;-1.30;99.90
33382;DHT22;21342;48.786;9.166;2022-12-18T16:02:32;-1.40;99.90
33382;DHT22;21342;48.786;9.166;2022-12-18T16:04:59;-1.40;99.90
33382;DHT22;21342;48.786;9.166;2022-12-18T16:07:27;-1.40;99.90
33382;DHT22;21342;48.786;9.166;2022-12-18T16:09:55;-1.40;99.90
33382;DHT22;21342;48.786;9.166;2022-12-18T16:12:24;-1.30;99.90